createdAt,value
2019-04-05T00:00:39.564Z,0.00
2019-04-05T00:01:39.553Z,0.00
2019-04-05T00:02:39.589Z,0.00
2019-04-05T00:03:39.514Z,0.00
2019-04-05T00:04:39.499Z,0.00
2019-04-05T00:05:39.490Z,0.00
2019-04-05T00:06:39.504Z,0.00
2019-04-05T00:07:39.513Z,0.00
2019-04-05T00:08:39.487Z,0.00
2019-04-05T00:09:39.462Z,0.00
2019-04-05T00:10:39.446Z,0.00
2019-04-05T00:11:39.436Z,0.00
2019-04-05T00:12:39.435Z,0.00
2019-04-05T00:13:39.438Z,0.00
2019-04-05T00:14:39.402Z,0.00
2019-04-05T00:15:39.410Z,0.00
2019-04-05T00:16:39.406Z,0.00
2019-04-05T00:17:39.378Z,0.00
2019-04-05T00:18:39.443Z,0.00
2019-04-05T00:19:39.373Z,0.00
2019-04-05T00:20:39.345Z,0.00
2019-04-05T00:21:39.335Z,0.00
2019-04-05T00:22:39.329Z,0.00
2019-04-05T00:23:39.317Z,0.00
2019-04-05T00:24:39.533Z,0.00
2019-04-05T00:25:39.306Z,0.00
2019-04-05T00:26:39.318Z,0.00
2019-04-05T00:27:39.274Z,0.00
2019-04-05T00:28:39.259Z,0.00
2019-04-05T00:29:39.262Z,0.00
2019-04-05T00:30:39.245Z,0.00
2019-04-05T00:31:39.223Z,0.00
2019-04-05T00:32:39.231Z,0.00
2019-04-05T00:33:39.207Z,0.00
2019-04-05T00:34:39.219Z,0.00
2019-04-05T00:35:39.186Z,0.00
2019-04-05T00:36:39.200Z,0.00
2019-04-05T00:37:39.190Z,0.00
2019-04-05T00:38:39.167Z,0.00
2019-04-05T00:39:39.194Z,0.00
2019-04-05T00:40:39.137Z,0.00
2019-04-05T00:41:39.116Z,0.00
2019-04-05T00:42:39.120Z,0.00
2019-04-05T00:43:39.091Z,0.00
2019-04-05T00:44:39.093Z,0.00
2019-04-05T00:45:39.086Z,0.00
2019-04-05T00:46:39.094Z,0.00
2019-04-05T00:47:39.091Z,0.00
2019-04-05T00:48:39.058Z,0.00
2019-04-05T00:49:39.040Z,0.00
2019-04-05T00:50:39.075Z,0.00
2019-04-05T00:51:39.037Z,0.00
2019-04-05T00:52:39.007Z,0.00
2019-04-05T00:53:39.002Z,0.00
2019-04-05T00:54:38.993Z,0.00
2019-04-05T00:55:39.018Z,0.00
2019-04-05T00:56:38.963Z,0.00
2019-04-05T00:57:38.974Z,0.00
2019-04-05T00:58:38.933Z,0.00
2019-04-05T00:59:38.943Z,0.00
2019-04-05T01:00:38.939Z,0.00
2019-04-05T01:01:38.911Z,0.00
2019-04-05T01:02:38.916Z,0.00
2019-04-05T01:03:38.892Z,0.00
2019-04-05T01:04:38.869Z,0.00
2019-04-05T01:05:38.886Z,0.00
2019-04-05T01:06:38.864Z,0.00
2019-04-05T01:07:38.865Z,0.00
2019-04-05T01:08:38.849Z,0.00
2019-04-05T01:09:38.845Z,0.00
2019-04-05T01:10:38.834Z,0.00
2019-04-05T01:11:38.851Z,0.00
2019-04-05T01:12:38.809Z,0.00
2019-04-05T01:13:38.798Z,0.00
2019-04-05T01:14:38.841Z,0.00
2019-04-05T01:15:41.031Z,0.00
2019-04-05T01:16:38.762Z,0.00
2019-04-05T01:17:38.762Z,0.00
2019-04-05T01:18:38.759Z,0.00
2019-04-05T01:19:38.733Z,0.00
2019-04-05T01:20:38.746Z,0.00
2019-04-05T01:21:38.699Z,0.00
2019-04-05T01:22:38.698Z,0.00
2019-04-05T01:23:38.691Z,0.00
2019-04-05T01:24:38.685Z,0.00
2019-04-05T01:25:38.684Z,0.00
2019-04-05T01:26:38.647Z,0.00
2019-04-05T01:27:38.661Z,0.00
2019-04-05T01:28:38.643Z,0.00
2019-04-05T01:29:38.641Z,0.00
2019-04-05T01:30:38.677Z,0.00
2019-04-05T01:31:38.590Z,0.00
2019-04-05T01:32:38.583Z,0.00
2019-04-05T01:33:38.601Z,0.00
2019-04-05T01:34:38.562Z,0.00
2019-04-05T01:35:38.564Z,0.00
2019-04-05T01:36:38.555Z,0.00
2019-04-05T01:37:38.524Z,0.00
2019-04-05T01:38:38.522Z,0.00
2019-04-05T01:39:38.506Z,0.00
2019-04-05T01:40:39.482Z,0.00
2019-04-05T01:41:38.494Z,0.00
2019-04-05T01:42:38.503Z,0.00
2019-04-05T01:43:38.499Z,0.00
2019-04-05T01:44:38.469Z,0.00
2019-04-05T01:45:38.525Z,0.00
2019-04-05T01:46:38.461Z,0.00
2019-04-05T01:47:38.432Z,0.00
2019-04-05T01:48:38.403Z,0.00
2019-04-05T01:49:38.436Z,0.00
2019-04-05T01:50:38.399Z,0.00
2019-04-05T01:51:38.373Z,0.00
2019-04-05T01:52:38.372Z,0.00
2019-04-05T01:53:38.351Z,0.00
2019-04-05T01:54:38.336Z,0.00
2019-04-05T01:55:38.382Z,0.00
2019-04-05T01:56:38.349Z,0.00
2019-04-05T01:57:38.322Z,0.00
2019-04-05T01:58:38.347Z,0.00
2019-04-05T01:59:38.288Z,0.00
2019-04-05T02:00:38.562Z,0.00
2019-04-05T02:01:38.275Z,0.00
2019-04-05T02:02:38.273Z,0.00
2019-04-05T02:03:38.259Z,0.00
2019-04-05T02:04:38.261Z,0.00
2019-04-05T02:05:38.268Z,0.00
2019-04-05T02:06:38.243Z,0.00
2019-04-05T02:07:38.215Z,0.00
2019-04-05T02:08:38.187Z,0.00
2019-04-05T02:09:38.216Z,0.00
2019-04-05T02:10:38.177Z,0.00
2019-04-05T02:11:38.179Z,0.00
2019-04-05T02:12:38.165Z,0.00
2019-04-05T02:13:38.154Z,0.00
2019-04-05T02:14:38.139Z,0.00
2019-04-05T02:15:38.166Z,0.00
2019-04-05T02:16:38.119Z,0.00
2019-04-05T02:17:38.099Z,0.00
2019-04-05T02:18:38.094Z,0.00
2019-04-05T02:19:38.110Z,0.00
2019-04-05T02:20:38.069Z,0.00
2019-04-05T02:21:38.092Z,0.00
2019-04-05T02:22:38.080Z,0.00
2019-04-05T02:23:38.044Z,0.00
2019-04-05T02:24:38.037Z,0.00
2019-04-05T02:25:38.022Z,0.00
2019-04-05T02:26:38.048Z,0.00
2019-04-05T02:27:38.002Z,0.00
2019-04-05T02:28:37.997Z,0.00
2019-04-05T02:29:37.984Z,0.00
2019-04-05T02:30:37.970Z,0.00
2019-04-05T02:31:37.963Z,0.00
2019-04-05T02:32:37.981Z,0.00
2019-04-05T02:33:37.930Z,0.00
2019-04-05T02:34:37.930Z,0.00
2019-04-05T02:35:39.194Z,0.00
2019-04-05T02:36:37.895Z,0.00
2019-04-05T02:37:37.907Z,0.00
2019-04-05T02:38:37.898Z,0.00
2019-04-05T02:39:37.864Z,0.00
2019-04-05T02:40:37.876Z,0.00
2019-04-05T02:41:37.853Z,0.00
2019-04-05T02:42:37.896Z,0.00
2019-04-05T02:43:37.840Z,0.00
2019-04-05T02:44:37.850Z,0.00
2019-04-05T02:45:37.814Z,0.00
2019-04-05T02:46:37.822Z,0.00
2019-04-05T02:47:37.813Z,0.00
2019-04-05T02:48:37.808Z,0.00
2019-04-05T02:49:37.791Z,0.00
2019-04-05T02:50:37.751Z,0.00
2019-04-05T02:51:37.752Z,0.00
2019-04-05T02:52:37.802Z,0.00
2019-04-05T02:53:37.746Z,0.00
2019-04-05T02:54:37.834Z,0.00
2019-04-05T02:55:37.723Z,0.00
2019-04-05T02:56:37.698Z,0.00
2019-04-05T02:57:37.682Z,0.00
2019-04-05T02:58:37.682Z,0.00
2019-04-05T02:59:37.672Z,0.00
2019-04-05T03:00:37.649Z,0.00
2019-04-05T03:01:37.640Z,0.00
2019-04-05T03:02:37.652Z,0.00
2019-04-05T03:03:37.650Z,0.00
2019-04-05T03:04:37.637Z,0.00
2019-04-05T03:05:37.609Z,0.00
2019-04-05T03:06:37.599Z,0.00
2019-04-05T03:07:37.579Z,0.00
2019-04-05T03:08:37.569Z,0.00
2019-04-05T03:09:37.570Z,0.00
2019-04-05T03:10:37.551Z,0.00
2019-04-05T03:11:37.554Z,0.00
2019-04-05T03:12:37.531Z,0.00
2019-04-05T03:13:37.516Z,0.00
2019-04-05T03:14:37.538Z,0.00
2019-04-05T03:15:37.515Z,0.00
2019-04-05T03:16:41.866Z,0.00
2019-04-05T03:17:37.482Z,0.00
2019-04-05T03:18:37.461Z,0.00
2019-04-05T03:19:37.464Z,0.00
2019-04-05T03:20:37.460Z,0.00
2019-04-05T03:21:37.438Z,0.00
2019-04-05T03:22:37.431Z,0.00
2019-04-05T03:23:37.406Z,0.00
2019-04-05T03:24:37.420Z,0.00
2019-04-05T03:25:37.421Z,0.00
2019-04-05T03:26:37.380Z,0.00
2019-04-05T03:27:37.372Z,0.00
2019-04-05T03:28:37.381Z,0.00
2019-04-05T03:29:37.353Z,0.00
2019-04-05T03:30:37.353Z,0.00
2019-04-05T03:31:37.333Z,0.00
2019-04-05T03:32:37.327Z,0.00
2019-04-05T03:33:37.306Z,0.00
2019-04-05T03:34:37.297Z,0.00
2019-04-05T03:35:37.298Z,0.00
2019-04-05T03:36:37.268Z,0.00
2019-04-05T03:37:37.278Z,0.00
2019-04-05T03:38:37.282Z,0.00
2019-04-05T03:39:37.284Z,0.00
2019-04-05T03:40:37.251Z,0.00
2019-04-05T03:41:37.216Z,0.00
2019-04-05T03:42:37.208Z,0.00
2019-04-05T03:43:37.202Z,0.00
2019-04-05T03:44:37.200Z,0.00
2019-04-05T03:45:37.189Z,0.00
2019-04-05T03:46:37.185Z,0.00
2019-04-05T03:47:37.180Z,0.00
2019-04-05T03:48:37.171Z,0.00
2019-04-05T03:49:37.150Z,0.00
2019-04-05T03:50:37.147Z,0.00
2019-04-05T03:51:37.129Z,0.00
2019-04-05T03:52:37.116Z,0.00
2019-04-05T03:53:37.092Z,0.00
2019-04-05T03:54:37.085Z,0.00
2019-04-05T03:55:37.086Z,0.00
2019-04-05T03:56:38.258Z,0.00
2019-04-05T03:57:37.057Z,0.00
2019-04-05T03:58:37.037Z,0.00
2019-04-05T03:59:37.041Z,0.00
2019-04-05T04:00:37.019Z,0.00
2019-04-05T04:01:37.040Z,0.00
2019-04-05T04:02:37.042Z,4.00
2019-04-05T04:03:36.995Z,4.00
2019-04-05T04:04:36.980Z,0.00
2019-04-05T04:05:36.976Z,4.00
2019-04-05T04:06:36.980Z,4.00
2019-04-05T04:07:36.990Z,4.00
2019-04-05T04:08:36.933Z,4.00
2019-04-05T04:09:36.922Z,4.00
2019-04-05T04:10:36.918Z,4.00
2019-04-05T04:11:36.912Z,4.00
2019-04-05T04:12:36.901Z,8.00
2019-04-05T04:13:36.890Z,8.00
2019-04-05T04:14:36.921Z,12.00
2019-04-05T04:15:36.861Z,12.00
2019-04-05T04:16:36.847Z,16.00
2019-04-05T04:17:36.852Z,20.00
2019-04-05T04:18:36.869Z,24.00
2019-04-05T04:19:36.849Z,28.00
2019-04-05T04:20:36.806Z,32.00
2019-04-05T04:21:36.800Z,36.00
2019-04-05T04:22:36.789Z,44.00
2019-04-05T04:23:36.790Z,52.00
2019-04-05T04:24:36.800Z,60.00
2019-04-05T04:25:36.773Z,68.00
2019-04-05T04:26:36.755Z,80.00
2019-04-05T04:27:36.744Z,88.00
2019-04-05T04:28:36.745Z,100.00
2019-04-05T04:29:36.716Z,112.00
2019-04-05T04:30:36.710Z,124.00
2019-04-05T04:31:36.685Z,140.00
2019-04-05T04:32:36.679Z,156.00
2019-04-05T04:33:36.677Z,176.00
2019-04-05T04:34:36.672Z,196.00
2019-04-05T04:35:37.597Z,216.00
2019-04-05T04:36:36.658Z,240.00
2019-04-05T04:37:36.624Z,264.00
2019-04-05T04:38:36.653Z,288.00
2019-04-05T04:39:36.613Z,312.00
2019-04-05T04:40:37.582Z,340.00
2019-04-05T04:41:36.600Z,368.00
2019-04-05T04:42:36.600Z,396.00
2019-04-05T04:43:36.567Z,428.00
2019-04-05T04:44:36.568Z,460.00
2019-04-05T04:45:36.569Z,492.00
2019-04-05T04:46:36.566Z,524.00
2019-04-05T04:47:36.558Z,556.00
2019-04-05T04:48:36.524Z,596.00
2019-04-05T04:49:36.512Z,632.00
2019-04-05T04:50:36.515Z,668.00
2019-04-05T04:51:36.521Z,708.00
2019-04-05T04:52:36.462Z,748.00
2019-04-05T04:53:36.580Z,784.00
2019-04-05T04:54:36.546Z,824.00
2019-04-05T04:55:36.461Z,864.00
2019-04-05T04:56:36.427Z,904.00
2019-04-05T04:57:36.592Z,944.00
2019-04-05T04:58:38.156Z,988.00
2019-04-05T04:59:38.018Z,1028.00
2019-04-05T05:00:36.430Z,1076.00
2019-04-05T05:01:36.375Z,1120.00
2019-04-05T05:02:36.423Z,1164.00
2019-04-05T05:03:36.371Z,1208.00
2019-04-05T05:04:36.375Z,1256.00
2019-04-05T05:05:36.342Z,1300.00
2019-04-05T05:06:36.322Z,1340.00
2019-04-05T05:07:36.326Z,1388.00
2019-04-05T05:08:37.252Z,1432.00
2019-04-05T05:09:36.279Z,1476.00
2019-04-05T05:10:36.305Z,1524.00
2019-04-05T05:11:37.024Z,1572.00
2019-04-05T05:12:36.276Z,1620.00
2019-04-05T05:13:36.260Z,1664.00
2019-04-05T05:14:36.347Z,1712.00
2019-04-05T05:15:36.271Z,1764.00
2019-04-05T05:16:36.210Z,1812.00
2019-04-05T05:17:38.587Z,1856.00
2019-04-05T05:18:36.195Z,1900.00
2019-04-05T05:19:36.176Z,1944.00
2019-04-05T05:20:36.192Z,1992.00
2019-04-05T05:21:36.208Z,2036.00
2019-04-05T05:22:36.147Z,2084.00
2019-04-05T05:23:36.178Z,2124.00
2019-04-05T05:24:36.129Z,2164.00
2019-04-05T05:25:36.114Z,2204.00
2019-04-05T05:26:36.126Z,2248.00
2019-04-05T05:27:36.114Z,2292.00
2019-04-05T05:28:36.128Z,2332.00
2019-04-05T05:29:36.128Z,2372.00
2019-04-05T05:30:36.106Z,2416.00
2019-04-05T05:31:36.103Z,2452.00
2019-04-05T05:32:36.058Z,2484.00
2019-04-05T05:33:36.049Z,2528.00
2019-04-05T05:34:36.036Z,2576.00
2019-04-05T05:35:36.014Z,2620.00
2019-04-05T05:36:36.042Z,2664.00
2019-04-05T05:37:35.996Z,2700.00
2019-04-05T05:38:37.028Z,2740.00
2019-04-05T05:39:35.992Z,2780.00
2019-04-05T05:40:35.989Z,2820.00
2019-04-05T05:41:36.657Z,2864.00
2019-04-05T05:42:35.954Z,2900.00
2019-04-05T05:43:35.946Z,2940.00
2019-04-05T05:44:35.973Z,2976.00
2019-04-05T05:45:35.915Z,3008.00
2019-04-05T05:46:35.889Z,3044.00
2019-04-05T05:47:50.495Z,3088.00
2019-04-05T05:48:37.643Z,3124.00
2019-04-05T05:49:35.890Z,3160.00
2019-04-05T05:50:35.865Z,3200.00
2019-04-05T05:51:35.886Z,3240.00
2019-04-05T05:52:35.834Z,3272.00
2019-04-05T05:53:35.887Z,3312.00
2019-04-05T05:54:35.912Z,3336.00
2019-04-05T05:55:35.809Z,3372.00
2019-04-05T05:56:36.959Z,3404.00
2019-04-05T05:57:36.543Z,3428.00
2019-04-05T05:58:35.786Z,3456.00
2019-04-05T05:59:35.768Z,3464.00
2019-04-05T06:00:35.753Z,3500.00
2019-04-05T06:01:35.747Z,3540.00
2019-04-05T06:02:38.387Z,3588.00
2019-04-05T06:03:35.730Z,3632.00
2019-04-05T06:04:35.711Z,3656.00
2019-04-05T06:05:35.706Z,3688.00
2019-04-05T06:06:35.705Z,3720.00
2019-04-05T06:07:35.675Z,3736.00
2019-04-05T06:08:35.656Z,3760.00
2019-04-05T06:09:35.664Z,3796.00
2019-04-05T06:10:36.617Z,3820.00
2019-04-05T06:11:35.630Z,3856.00
2019-04-05T06:12:35.611Z,3892.00
2019-04-05T06:13:35.615Z,3912.00
2019-04-05T06:14:35.588Z,3956.00
2019-04-05T06:15:37.562Z,4000.00
2019-04-05T06:16:45.812Z,4048.00
2019-04-05T06:17:36.566Z,4080.00
2019-04-05T06:18:35.547Z,4108.00
2019-04-05T06:19:35.567Z,4136.00
2019-04-05T06:20:35.683Z,4188.00
2019-04-05T06:21:35.694Z,4228.00
2019-04-05T06:22:35.653Z,4280.00
2019-04-05T06:23:35.598Z,4328.00
2019-04-05T06:24:35.507Z,4364.00
2019-04-05T06:25:35.487Z,4380.00
2019-04-05T06:26:35.521Z,4408.00
2019-04-05T06:27:35.653Z,4448.00
2019-04-05T06:28:35.522Z,4480.00
2019-04-05T06:29:35.443Z,4520.00
2019-04-05T06:30:36.078Z,4576.00
2019-04-05T06:31:35.597Z,4616.00
2019-04-05T06:32:35.414Z,4660.00
2019-04-05T06:33:35.977Z,4700.00
2019-04-05T06:34:35.382Z,4768.00
2019-04-05T06:35:35.368Z,4824.00
2019-04-05T06:36:35.377Z,4860.00
2019-04-05T06:37:35.364Z,4856.00
2019-04-05T06:38:35.394Z,4880.00
2019-04-05T06:39:35.330Z,4924.00
2019-04-05T06:40:41.039Z,5008.00
2019-04-05T06:41:36.312Z,5024.00
2019-04-05T06:42:35.309Z,5096.00
2019-04-05T06:43:35.324Z,5396.00
2019-04-05T06:44:35.299Z,5852.00
2019-04-05T06:45:35.271Z,6100.00
2019-04-05T06:46:35.274Z,6352.00
2019-04-05T06:47:35.332Z,6460.00
2019-04-05T06:48:35.242Z,6876.00
2019-04-05T06:49:35.268Z,7356.00
2019-04-05T06:50:35.206Z,7476.00
2019-04-05T06:51:35.199Z,7208.00
2019-04-05T06:52:35.215Z,6620.00
2019-04-05T06:53:35.217Z,5976.00
2019-04-05T06:54:35.183Z,5576.00
2019-04-05T06:55:35.169Z,5440.00
2019-04-05T06:56:35.153Z,5500.00
2019-04-05T06:57:35.183Z,5544.00
2019-04-05T06:58:35.123Z,5592.00
2019-04-05T06:59:35.125Z,5628.00
2019-04-05T07:00:35.129Z,5664.00
2019-04-05T07:01:35.103Z,5680.00
2019-04-05T07:02:35.091Z,5692.00
2019-04-05T07:03:35.085Z,5716.00
2019-04-05T07:04:35.092Z,5736.00
2019-04-05T07:05:35.057Z,5772.00
2019-04-05T07:06:35.038Z,5804.00
2019-04-05T07:07:35.040Z,5824.00
2019-04-05T07:08:35.025Z,5880.00
2019-04-05T07:09:35.021Z,5920.00
2019-04-05T07:10:35.027Z,5952.00
2019-04-05T07:11:35.028Z,5936.00
2019-04-05T07:12:35.000Z,5984.00
2019-04-05T07:13:34.971Z,6012.00
2019-04-05T07:14:34.956Z,6032.00
2019-04-05T07:15:34.993Z,6068.00
2019-04-05T07:16:34.931Z,6120.00
2019-04-05T07:17:34.938Z,6144.00
2019-04-05T07:18:36.340Z,6172.00
2019-04-05T07:19:34.919Z,6208.00
2019-04-05T07:20:34.898Z,6220.00
2019-04-05T07:21:34.907Z,6272.00
2019-04-05T07:22:39.108Z,6276.00
2019-04-05T07:23:34.857Z,6328.00
2019-04-05T07:24:34.857Z,6340.00
2019-04-05T07:25:34.880Z,6344.00
2019-04-05T07:26:34.843Z,6304.00
2019-04-05T07:27:34.896Z,6344.00
2019-04-05T07:28:34.840Z,6376.00
2019-04-05T07:29:34.794Z,6404.00
2019-04-05T07:30:34.801Z,6460.00
2019-04-05T07:31:34.792Z,6464.00
2019-04-05T07:32:34.768Z,6504.00
2019-04-05T07:33:34.793Z,6544.00
2019-04-05T07:34:34.750Z,6604.00
2019-04-05T07:35:34.844Z,6696.00
2019-04-05T07:36:34.790Z,6760.00
2019-04-05T07:37:34.758Z,6836.00
2019-04-05T07:38:34.746Z,6868.00
2019-04-05T07:39:34.711Z,6884.00
2019-04-05T07:40:34.714Z,6924.00
2019-04-05T07:41:34.699Z,6952.00
2019-04-05T07:42:34.718Z,6988.00
2019-04-05T07:43:34.682Z,6976.00
2019-04-05T07:44:34.643Z,6960.00
2019-04-05T07:45:34.641Z,6968.00
2019-04-05T07:46:34.616Z,6992.00
2019-04-05T07:47:34.614Z,6988.00
2019-04-05T07:48:44.166Z,7016.00
2019-04-05T07:49:35.602Z,7032.00
2019-04-05T07:50:34.582Z,7032.00
2019-04-05T07:51:34.629Z,7060.00
2019-04-05T07:52:34.568Z,7104.00
2019-04-05T07:53:34.568Z,7120.00
2019-04-05T07:54:34.577Z,7124.00
2019-04-05T07:55:34.531Z,7152.00
2019-04-05T07:56:34.502Z,7188.00
2019-04-05T07:57:34.494Z,7180.00
2019-04-05T07:58:34.507Z,7140.00
2019-04-05T07:59:34.547Z,7164.00
2019-04-05T08:00:34.481Z,7160.00
2019-04-05T08:01:34.603Z,7196.00
2019-04-05T08:02:34.457Z,7216.00
2019-04-05T08:03:35.121Z,7252.00
2019-04-05T08:04:34.459Z,7324.00
2019-04-05T08:05:34.636Z,7336.00
2019-04-05T08:06:34.419Z,7340.00
2019-04-05T08:07:34.401Z,7388.00
2019-04-05T08:08:34.410Z,7436.00
2019-04-05T08:09:34.393Z,7540.00
2019-04-05T08:10:34.357Z,7568.00
2019-04-05T08:11:34.365Z,7632.00
2019-04-05T08:12:35.096Z,7664.00
2019-04-05T08:13:34.360Z,7712.00
2019-04-05T08:14:34.765Z,7724.00
2019-04-05T08:15:35.150Z,7740.00
2019-04-05T08:16:34.290Z,7704.00
2019-04-05T08:17:34.291Z,7664.00
2019-04-05T08:18:34.285Z,7728.00
2019-04-05T08:19:34.307Z,7768.00
2019-04-05T08:20:34.284Z,7832.00
2019-04-05T08:21:34.368Z,7880.00
2019-04-05T08:22:34.245Z,7888.00
2019-04-05T08:23:34.304Z,7884.00
2019-04-05T08:24:35.262Z,7944.00
2019-04-05T08:25:34.218Z,7968.00
2019-04-05T08:26:34.193Z,8016.00
2019-04-05T08:27:34.206Z,7996.00
2019-04-05T08:28:34.166Z,7948.00
2019-04-05T08:29:34.213Z,7972.00
2019-04-05T08:30:34.159Z,7748.00
2019-04-05T08:31:34.180Z,7892.00
2019-04-05T08:32:34.133Z,7956.00
2019-04-05T08:33:36.400Z,7936.00
2019-04-05T08:34:34.145Z,7964.00
2019-04-05T08:35:34.142Z,8144.00
2019-04-05T08:36:34.100Z,8136.00
2019-04-05T08:37:34.085Z,8156.00
2019-04-05T08:38:34.066Z,8148.00
2019-04-05T08:39:34.055Z,7952.00
2019-04-05T08:40:34.058Z,7976.00
2019-04-05T08:41:34.068Z,8152.00
2019-04-05T08:42:34.035Z,8144.00
2019-04-05T08:43:34.065Z,7976.00
2019-04-05T08:44:34.047Z,8060.00
2019-04-05T08:45:33.993Z,7868.00
2019-04-05T08:46:33.977Z,8176.00
2019-04-05T08:47:33.984Z,8220.00
2019-04-05T08:48:33.981Z,8120.00
2019-04-05T08:49:33.971Z,8204.00
2019-04-05T08:50:33.955Z,7948.00
2019-04-05T08:51:33.953Z,8584.00
2019-04-05T08:52:33.972Z,8432.00
2019-04-05T08:53:33.918Z,8464.00
2019-04-05T08:54:36.610Z,8664.00
2019-04-05T08:55:33.963Z,8592.00
2019-04-05T08:56:33.884Z,8848.00
2019-04-05T08:57:33.884Z,8900.00
2019-04-05T08:58:33.945Z,7788.00
2019-04-05T08:59:33.859Z,7896.00
2019-04-05T09:00:33.844Z,8092.00
2019-04-05T09:01:33.846Z,7004.00
2019-04-05T09:02:33.824Z,6484.00
2019-04-05T09:03:33.861Z,6560.00
2019-04-05T09:04:33.803Z,7088.00
2019-04-05T09:05:33.788Z,7576.00
2019-04-05T09:06:33.958Z,9280.00
2019-04-05T09:07:33.778Z,10168.00
2019-04-05T09:08:33.741Z,10532.00
2019-04-05T09:09:33.752Z,11244.00
2019-04-05T09:10:33.814Z,11092.00
2019-04-05T09:11:33.735Z,10624.00
2019-04-05T09:12:33.727Z,10900.00
2019-04-05T09:13:34.673Z,10536.00
2019-04-05T09:14:33.698Z,11008.00
2019-04-05T09:15:33.707Z,11424.00
2019-04-05T09:16:33.694Z,12092.00
2019-04-05T09:17:33.680Z,12220.00
2019-04-05T09:18:33.719Z,12236.00
2019-04-05T09:19:33.620Z,12584.00
2019-04-05T09:20:33.639Z,11936.00
2019-04-05T09:21:33.608Z,12536.00
2019-04-05T09:22:33.608Z,12412.00
2019-04-05T09:23:33.600Z,13080.00
2019-04-05T09:24:33.591Z,13388.00
2019-04-05T09:25:33.580Z,13464.00
2019-04-05T09:26:33.551Z,12888.00
2019-04-05T09:27:33.547Z,11700.00
2019-04-05T09:28:33.549Z,10836.00
2019-04-05T09:29:33.533Z,10732.00
2019-04-05T09:30:33.560Z,10960.00
2019-04-05T09:31:33.503Z,11216.00
2019-04-05T09:32:36.394Z,11212.00
2019-04-05T09:33:33.497Z,10796.00
2019-04-05T09:34:33.555Z,9944.00
2019-04-05T09:35:33.552Z,9488.00
2019-04-05T09:36:33.524Z,9028.00
2019-04-05T09:37:33.433Z,8804.00
2019-04-05T09:38:33.457Z,9264.00
2019-04-05T09:39:33.443Z,9152.00
2019-04-05T09:40:33.435Z,8696.00
2019-04-05T09:41:33.411Z,8492.00
2019-04-05T09:42:33.384Z,8848.00
2019-04-05T09:43:33.387Z,9264.00
2019-04-05T09:44:33.408Z,9352.00
2019-04-05T09:45:33.379Z,9224.00
2019-04-05T09:46:45.609Z,9060.00
2019-04-05T09:47:34.326Z,8908.00
2019-04-05T09:48:33.331Z,8844.00
2019-04-05T09:49:37.067Z,9204.00
2019-04-05T09:50:33.342Z,9308.00
2019-04-05T09:51:33.294Z,9216.00
2019-04-05T09:52:33.320Z,9304.00
2019-04-05T09:53:33.297Z,9072.00
2019-04-05T09:54:33.267Z,8172.00
2019-04-05T09:55:33.262Z,7528.00
2019-04-05T09:56:33.249Z,7384.00
2019-04-05T09:57:33.236Z,7144.00
2019-04-05T09:58:33.259Z,7128.00
2019-04-05T09:59:33.223Z,7352.00
2019-04-05T10:00:33.207Z,7500.00
2019-04-05T10:01:33.216Z,7376.00
2019-04-05T10:02:33.190Z,7256.00
2019-04-05T10:03:33.200Z,7312.00
2019-04-05T10:04:33.205Z,7376.00
2019-04-05T10:05:33.197Z,7888.00
2019-04-05T10:06:33.202Z,8272.00
2019-04-05T10:07:33.171Z,7796.00
2019-04-05T10:08:33.155Z,7312.00
2019-04-05T10:09:33.143Z,7156.00
2019-04-05T10:10:33.105Z,6980.00
2019-04-05T10:11:33.089Z,7248.00
2019-04-05T10:12:33.092Z,7552.00
2019-04-05T10:13:33.076Z,7684.00
2019-04-05T10:14:33.073Z,7656.00
2019-04-05T10:15:33.044Z,7788.00
2019-04-05T10:16:33.041Z,7892.00
2019-04-05T10:17:33.025Z,7856.00
2019-04-05T10:18:33.007Z,8100.00
2019-04-05T10:19:33.003Z,8352.00
2019-04-05T10:20:32.983Z,7732.00
2019-04-05T10:21:32.990Z,7756.00
2019-04-05T10:22:32.966Z,7332.00
2019-04-05T10:23:32.990Z,7224.00
2019-04-05T10:24:33.180Z,7068.00
2019-04-05T10:25:32.939Z,7296.00
2019-04-05T10:26:32.970Z,7600.00
2019-04-05T10:27:32.907Z,7392.00
2019-04-05T10:28:32.908Z,7000.00
2019-04-05T10:29:32.895Z,6632.00
2019-04-05T10:30:32.893Z,6484.00
2019-04-05T10:31:32.875Z,6856.00
2019-04-05T10:32:32.847Z,6936.00
2019-04-05T10:33:32.840Z,6964.00
2019-04-05T10:34:32.893Z,7316.00
2019-04-05T10:35:32.867Z,7332.00
2019-04-05T10:36:32.899Z,6628.00
2019-04-05T10:37:32.807Z,6752.00
2019-04-05T10:38:32.801Z,7036.00
2019-04-05T10:39:32.825Z,7372.00
2019-04-05T10:40:32.794Z,6968.00
2019-04-05T10:41:32.759Z,7004.00
2019-04-05T10:42:32.762Z,7276.00
2019-04-05T10:43:32.746Z,7768.00
2019-04-05T10:44:32.755Z,8008.00
2019-04-05T10:45:32.732Z,7428.00
2019-04-05T10:46:32.732Z,7204.00
2019-04-05T10:47:32.708Z,7664.00
2019-04-05T10:48:35.280Z,7920.00
2019-04-05T10:49:32.705Z,7648.00
2019-04-05T10:50:32.681Z,7560.00
2019-04-05T10:51:32.654Z,7912.00
2019-04-05T10:52:32.662Z,7692.00
2019-04-05T10:53:32.707Z,7564.00
2019-04-05T10:54:32.632Z,7768.00
2019-04-05T10:55:32.614Z,7924.00
2019-04-05T10:56:32.591Z,8184.00
2019-04-05T10:57:32.583Z,8380.00
2019-04-05T10:58:32.578Z,8372.00
2019-04-05T10:59:32.569Z,8260.00
2019-04-05T11:00:32.573Z,8164.00
2019-04-05T11:01:32.552Z,8196.00
2019-04-05T11:02:32.528Z,8208.00
2019-04-05T11:03:32.568Z,8360.00
2019-04-05T11:04:32.519Z,8372.00
2019-04-05T11:05:32.512Z,8080.00
2019-04-05T11:06:32.486Z,7804.00
2019-04-05T11:07:34.959Z,8000.00
2019-04-05T11:08:32.483Z,8176.00
2019-04-05T11:09:32.502Z,8000.00
2019-04-05T11:10:32.459Z,8152.00
2019-04-05T11:11:32.442Z,8140.00
2019-04-05T11:12:32.466Z,7728.00
2019-04-05T11:13:32.435Z,7796.00
2019-04-05T11:14:32.441Z,7800.00
2019-04-05T11:15:32.404Z,7596.00
2019-04-05T11:16:32.404Z,7624.00
2019-04-05T11:17:32.382Z,7520.00
2019-04-05T11:18:32.920Z,7588.00
2019-04-05T11:19:34.824Z,7180.00
2019-04-05T11:20:32.362Z,7296.00
2019-04-05T11:21:32.416Z,7316.00
2019-04-05T11:22:32.341Z,7080.00
2019-04-05T11:23:32.323Z,7568.00
2019-04-05T11:24:32.358Z,7672.00
2019-04-05T11:25:32.337Z,6624.00
2019-04-05T11:26:32.285Z,6372.00
2019-04-05T11:27:32.269Z,6504.00
2019-04-05T11:28:32.257Z,6568.00
2019-04-05T11:29:32.270Z,6636.00
2019-04-05T11:30:32.233Z,6652.00
2019-04-05T11:31:32.257Z,6620.00
2019-04-05T11:32:32.267Z,6620.00
2019-04-05T11:33:32.207Z,6700.00
2019-04-05T11:34:32.196Z,7092.00
2019-04-05T11:35:32.192Z,7328.00
2019-04-05T11:36:32.177Z,7652.00
2019-04-05T11:37:32.189Z,8304.00
2019-04-05T11:38:32.157Z,9152.00
2019-04-05T11:39:32.155Z,9128.00
2019-04-05T11:40:32.134Z,9764.00
2019-04-05T11:41:32.166Z,10456.00
2019-04-05T11:42:33.166Z,9800.00
2019-04-05T11:43:32.102Z,9144.00
2019-04-05T11:44:32.102Z,9148.00
2019-04-05T11:45:32.093Z,10480.00
2019-04-05T11:46:32.084Z,11124.00
2019-04-05T11:47:32.143Z,11512.00
2019-04-05T11:48:32.078Z,11404.00
2019-04-05T11:49:32.106Z,11308.00
2019-04-05T11:50:34.667Z,12360.00
2019-04-05T11:51:32.017Z,13852.00
2019-04-05T11:52:32.008Z,13208.00
2019-04-05T11:53:32.012Z,13532.00
2019-04-05T11:54:31.994Z,15208.00
2019-04-05T11:55:31.989Z,15836.00
2019-04-05T11:56:31.971Z,16832.00
2019-04-05T11:57:31.956Z,17376.00
2019-04-05T11:58:31.946Z,17664.00
2019-04-05T11:59:31.947Z,14888.00
2019-04-05T12:00:31.927Z,13516.00
2019-04-05T12:01:31.933Z,13904.00
2019-04-05T12:02:31.896Z,15188.00
2019-04-05T12:03:31.907Z,17504.00
2019-04-05T12:04:31.871Z,17728.00
2019-04-05T12:05:31.903Z,16864.00
2019-04-05T12:06:31.879Z,15408.00
2019-04-05T12:07:31.838Z,15192.00
2019-04-05T12:08:31.865Z,16256.00
2019-04-05T12:09:31.884Z,17728.00
2019-04-05T12:10:32.208Z,18592.00
2019-04-05T12:11:31.835Z,18976.00
2019-04-05T12:12:31.807Z,19360.00
2019-04-05T12:13:31.785Z,22432.00
2019-04-05T12:14:31.781Z,19328.00
2019-04-05T12:15:33.518Z,16672.00
2019-04-05T12:16:31.788Z,19392.00
2019-04-05T12:17:35.075Z,22848.00
2019-04-05T12:18:32.539Z,21536.00
2019-04-05T12:19:32.965Z,17344.00
2019-04-05T12:20:33.265Z,17568.00
2019-04-05T12:21:32.601Z,21088.00
2019-04-05T12:22:34.537Z,21568.00
2019-04-05T12:23:33.383Z,16256.00
2019-04-05T12:24:32.655Z,17184.00
2019-04-05T12:25:33.439Z,23840.00
2019-04-05T12:26:32.443Z,22752.00
2019-04-05T12:27:31.629Z,20224.00
2019-04-05T12:28:31.663Z,24448.00